עמוד ראשי
METAR-TAF:

METAR-TAF

שדות תעופה :

Port Heiden, אלסקה, ארצות הברית

קו רוחב: 56-57N, קו אורך: 158-38W, גובה: 29מטר

תצפית מזג אוויר נוכחית

הדו"ח נערך לפני 30דקות, בשעה 15:56 UTC
רוח 4קשר מכיוון צפון-מערב
טמפרטורת 7 צלסיוס
לחות 93%
לחץ 1024 hPa
ראות: 16.1קילומטר
מעונן בגובה 8000רגל

METAR: PAPH 151556Z AUTO 32004KT 10SM OVC080 07/06 A3023 RMK AO2 SLP237 T00720061 $

זמן: 08:26 (16:26 UTC)


TAF: חסר

תצפיות ותחזיות מזג אוויר לגבי יותר מ- 4,000 שדות תעופה ברחבי העולם. דוחות METAR ו- TAF.

התחנות הזמינות מסומנות בנקודות צהובות ואדומות על גבי המפה.

העבר את העכבר לנקודה הצבעונית על מנת לראות את שם התחנה.

לאחר מכן, לחץ כדי לראות את תוכן ואת תחזיות מזג האוויר.

כדי לשנות את המפה: לחץ על הכפתורים הירוקים עם הפלוס השחור כדי להתקרב; על הכפתור הירוק עם המקף כדי להתרחק; או בחיצים הירוקים למפות סמוכות.


METAR-TAF: